createdAt,value
2022-11-07T00:01:51.992Z,73.45
2022-11-07T00:06:53.843Z,73.74
2022-11-07T00:11:56.087Z,73.84
2022-11-07T00:16:58.149Z,73.67
2022-11-07T00:22:00.309Z,74.06
2022-11-07T00:27:02.689Z,74.35
2022-11-07T00:32:05.302Z,74.63
2022-11-07T00:37:07.337Z,74.97
2022-11-07T00:42:09.213Z,75.04
2022-11-07T00:47:11.495Z,75.43
2022-11-07T00:52:13.372Z,75.58
2022-11-07T00:57:15.225Z,75.72
2022-11-07T01:02:17.095Z,75.81
2022-11-07T01:07:19.183Z,76.02
2022-11-07T01:12:21.033Z,76.16
2022-11-07T01:17:23.050Z,76.26
2022-11-07T01:22:25.065Z,76.79
2022-11-07T01:27:27.093Z,77.04
2022-11-07T01:32:29.007Z,77.43
2022-11-07T01:37:30.858Z,77.48
2022-11-07T01:42:32.833Z,77.58
2022-11-07T01:47:38.084Z,77.74
2022-11-07T01:52:42.654Z,78.01
2022-11-07T01:57:54.663Z,78.09
2022-11-07T02:03:01.797Z,78.17
2022-11-07T02:08:06.975Z,78.22
2022-11-07T02:13:09.635Z,78.39
2022-11-07T02:18:11.603Z,78.49
2022-11-07T02:23:18.021Z,78.41
2022-11-07T02:28:21.108Z,78.74
2022-11-07T02:33:24.163Z,79.13
2022-11-07T02:38:36.818Z,79.29
2022-11-07T02:43:41.407Z,79.42
2022-11-07T02:48:49.291Z,78.99
2022-11-07T02:53:52.160Z,79.01
2022-11-07T02:58:54.921Z,78.99
2022-11-07T03:03:57.018Z,79.03
2022-11-07T03:08:58.959Z,78.64
2022-11-07T03:14:01.015Z,78.80
2022-11-07T03:19:02.872Z,78.55
2022-11-07T03:24:05.083Z,78.71
2022-11-07T03:29:06.938Z,78.71
2022-11-07T03:34:09.057Z,78.69
2022-11-07T03:39:10.948Z,78.83
2022-11-07T03:44:12.922Z,79.17
2022-11-07T03:49:14.793Z,79.27
2022-11-07T03:54:16.860Z,79.04
2022-11-07T03:59:18.732Z,78.97
2022-11-07T04:04:20.626Z,78.93
2022-11-07T04:09:22.518Z,78.84
2022-11-07T04:14:43.088Z,79.11
2022-11-07T04:19:49.151Z,79.33
2022-11-07T04:24:51.204Z,79.83
2022-11-07T04:29:53.171Z,80.18
2022-11-07T04:34:55.072Z,79.93
2022-11-07T04:39:57.038Z,80.13
2022-11-07T04:44:58.914Z,80.42
2022-11-07T04:50:00.912Z,80.35
2022-11-07T04:55:03.062Z,80.50
2022-11-07T05:00:05.566Z,80.27
2022-11-07T05:05:07.710Z,80.26
2022-11-07T05:10:19.774Z,80.32
2022-11-07T05:15:21.940Z,80.38
2022-11-07T05:20:27.899Z,80.68
2022-11-07T05:25:29.739Z,80.95
2022-11-07T05:30:31.671Z,81.23
2022-11-07T05:35:33.530Z,81.27
2022-11-07T05:40:37.743Z,81.04
2022-11-07T05:45:41.125Z,80.87
2022-11-07T05:50:43.382Z,81.27
2022-11-07T05:55:45.309Z,81.27
2022-11-07T06:00:47.887Z,81.47
2022-11-07T06:05:49.791Z,81.81
2022-11-07T06:10:51.627Z,81.94
2022-11-07T06:15:53.513Z,81.58
2022-11-07T06:20:55.349Z,81.94
2022-11-07T06:25:57.257Z,81.98
2022-11-07T06:31:02.836Z,81.87
2022-11-07T06:36:12.308Z,82.13
2022-11-07T06:41:15.019Z,81.77
2022-11-07T06:46:19.437Z,81.95
2022-11-07T06:51:21.441Z,82.24
2022-11-07T06:56:23.756Z,82.38
2022-11-07T07:01:25.968Z,82.09
2022-11-07T07:06:28.101Z,81.98
2022-11-07T07:11:29.893Z,81.85
2022-11-07T07:16:32.091Z,81.78
2022-11-07T07:21:34.208Z,81.50
2022-11-07T07:26:36.090Z,81.37
2022-11-07T07:31:37.939Z,81.21
2022-11-07T07:36:39.817Z,81.37
2022-11-07T07:41:41.716Z,80.87
2022-11-07T07:46:43.570Z,80.29
2022-11-07T07:51:45.444Z,79.91
2022-11-07T07:56:47.330Z,79.77
2022-11-07T08:01:55.235Z,79.10
2022-11-07T08:06:58.719Z,79.59
2022-11-07T08:12:00.602Z,80.00
2022-11-07T08:17:02.792Z,79.37
2022-11-07T08:22:04.703Z,78.78
2022-11-07T08:27:06.569Z,78.50
2022-11-07T08:32:08.533Z,78.55
2022-11-07T08:37:10.518Z,77.82
2022-11-07T08:42:12.995Z,78.14
2022-11-07T08:47:14.878Z,77.21
2022-11-07T08:52:16.850Z,76.79
2022-11-07T08:57:19.152Z,76.40
2022-11-07T09:03:04.299Z,75.78
2022-11-07T09:07:43.301Z,74.14
2022-11-07T09:12:47.250Z,71.76
2022-11-07T09:17:51.054Z,64.75
2022-11-07T09:22:56.857Z,63.01
2022-11-07T09:28:03.093Z,63.14
2022-11-07T09:33:05.422Z,61.90
2022-11-07T09:38:07.437Z,58.94
2022-11-07T09:43:14.380Z,58.53
2022-11-07T09:48:22.731Z,56.26
2022-11-07T09:53:40.332Z,54.18
2022-11-07T09:58:46.378Z,51.91
2022-11-07T10:04:23.556Z,51.23
2022-11-07T10:09:26.842Z,50.17
2022-11-07T10:14:58.269Z,49.28
2022-11-07T10:20:09.456Z,48.85
2022-11-07T10:25:20.635Z,47.61
2022-11-07T10:30:22.796Z,46.66
2022-11-07T10:35:29.803Z,46.03
2022-11-07T10:40:38.705Z,45.78
2022-11-07T10:45:41.478Z,45.76
2022-11-07T10:50:51.645Z,48.29
2022-11-07T10:55:55.323Z,51.53
2022-11-07T11:01:04.101Z,53.73
2022-11-07T11:06:31.648Z,55.41
2022-11-07T11:11:40.337Z,54.52
2022-11-07T11:16:43.377Z,54.23
2022-11-07T11:21:47.104Z,54.58
2022-11-07T11:26:50.684Z,56.43
2022-11-07T11:31:56.214Z,56.21
2022-11-07T11:37:07.929Z,56.63
2022-11-07T11:42:45.031Z,57.36
2022-11-07T11:48:12.167Z,56.89
2022-11-07T11:53:19.978Z,57.32
2022-11-07T11:58:39.970Z,58.05
2022-11-07T12:04:12.244Z,58.77
2022-11-07T12:09:36.723Z,58.18
2022-11-07T12:15:09.449Z,58.49
2022-11-07T12:20:27.357Z,58.89
2022-11-07T12:25:33.674Z,58.93
2022-11-07T12:30:51.881Z,58.81
2022-11-07T12:36:11.936Z,57.29
2022-11-07T12:41:28.963Z,57.79
2022-11-07T12:47:00.610Z,57.70
2022-11-07T12:52:23.619Z,57.12
2022-11-07T12:57:27.853Z,55.71
2022-11-07T13:02:35.443Z,56.00
2022-11-07T13:07:42.307Z,55.16
2022-11-07T13:12:51.277Z,55.45
2022-11-07T13:17:53.487Z,53.66
2022-11-07T13:22:58.821Z,54.29
2022-11-07T13:28:04.539Z,54.82
2022-11-07T13:33:07.205Z,54.28
2022-11-07T13:38:17.515Z,55.04
2022-11-07T13:43:20.941Z,53.47
2022-11-07T13:48:25.837Z,52.71
2022-11-07T13:53:33.570Z,52.12
2022-11-07T13:58:37.609Z,56.68
2022-11-07T14:03:39.729Z,52.27
2022-11-07T14:08:48.753Z,51.96
2022-11-07T14:13:53.514Z,52.90
2022-11-07T14:19:03.585Z,55.31
2022-11-07T14:24:27.291Z,52.28
2022-11-07T14:29:29.797Z,52.49
2022-11-07T14:34:35.064Z,51.71
2022-11-07T14:39:36.962Z,53.27
2022-11-07T14:44:54.055Z,51.92
2022-11-07T14:49:59.889Z,53.22
2022-11-07T14:55:14.755Z,54.09
2022-11-07T15:00:21.882Z,51.70
2022-11-07T15:05:28.260Z,53.00
2022-11-07T15:10:39.071Z,53.37
2022-11-07T15:15:41.138Z,53.65
2022-11-07T15:20:43.209Z,53.61
2022-11-07T15:26:00.261Z,53.76
2022-11-07T15:31:02.328Z,53.81
2022-11-07T15:36:04.780Z,53.94
2022-11-07T15:41:06.990Z,54.88
2022-11-07T15:46:34.827Z,52.45
2022-11-07T15:51:37.025Z,53.87
2022-11-07T15:56:41.036Z,55.56
2022-11-07T16:01:43.031Z,54.83
2022-11-07T16:06:46.200Z,53.90
2022-11-07T16:11:48.530Z,53.58
2022-11-07T16:16:50.483Z,54.27
2022-11-07T16:21:52.590Z,55.21
2022-11-07T16:26:54.638Z,55.65
2022-11-07T16:31:56.483Z,56.78
2022-11-07T16:36:58.613Z,57.97
2022-11-07T16:42:00.552Z,57.81
2022-11-07T16:47:02.646Z,58.59
2022-11-07T16:52:05.089Z,59.30
2022-11-07T16:57:14.472Z,59.35
2022-11-07T17:02:25.219Z,59.59
2022-11-07T17:07:27.210Z,59.23
2022-11-07T17:12:29.286Z,59.04
2022-11-07T17:17:31.475Z,60.16
2022-11-07T17:22:33.609Z,60.94
2022-11-07T17:27:39.022Z,61.17
2022-11-07T17:32:41.213Z,63.10
2022-11-07T17:37:43.338Z,63.39
2022-11-07T17:42:47.961Z,63.28
2022-11-07T17:47:50.375Z,63.62
2022-11-07T17:52:52.566Z,64.18
2022-11-07T17:57:54.752Z,64.19
2022-11-07T18:02:56.808Z,65.05
2022-11-07T18:07:58.760Z,65.30
2022-11-07T18:13:00.740Z,66.24
2022-11-07T18:18:08.201Z,65.98
2022-11-07T18:23:12.906Z,66.70
2022-11-07T18:28:15.199Z,67.76
2022-11-07T18:33:17.289Z,67.51
2022-11-07T18:38:19.481Z,67.42
2022-11-07T18:43:22.177Z,68.48
2022-11-07T18:48:24.872Z,68.58
2022-11-07T18:53:29.171Z,68.69
2022-11-07T18:58:32.383Z,67.55
2022-11-07T19:03:35.875Z,68.23
2022-11-07T19:08:39.703Z,68.34
2022-11-07T19:13:43.646Z,68.28
2022-11-07T19:18:49.493Z,70.08
2022-11-07T19:23:52.102Z,69.25
2022-11-07T19:28:54.452Z,69.01
2022-11-07T19:33:56.424Z,69.15
2022-11-07T19:38:58.689Z,69.24
2022-11-07T19:44:04.347Z,69.76
2022-11-07T19:49:06.477Z,69.83
2022-11-07T19:54:10.236Z,70.67
2022-11-07T19:59:12.950Z,69.81
2022-11-07T20:04:15.551Z,68.06
2022-11-07T20:09:17.430Z,69.26
2022-11-07T20:14:19.292Z,69.68
2022-11-07T20:19:21.145Z,70.23
2022-11-07T20:24:22.976Z,70.55
2022-11-07T20:29:25.076Z,70.98
2022-11-07T20:34:27.021Z,71.80
2022-11-07T20:39:29.839Z,72.15
2022-11-07T20:44:32.107Z,72.13
2022-11-07T20:49:34.077Z,72.44
2022-11-07T20:54:36.757Z,72.76
2022-11-07T20:59:41.359Z,73.56
2022-11-07T21:05:11.135Z,73.33
2022-11-07T21:10:06.023Z,73.31
2022-11-07T21:15:08.698Z,73.81
2022-11-07T21:20:10.769Z,73.14
2022-11-07T21:25:12.588Z,72.63
2022-11-07T21:30:14.583Z,72.02
2022-11-07T21:35:16.515Z,72.04
2022-11-07T21:40:18.453Z,71.87
2022-11-07T21:45:20.926Z,72.64
2022-11-07T21:50:48.357Z,73.13
2022-11-07T21:55:44.946Z,73.84
2022-11-07T22:00:47.208Z,74.15
2022-11-07T22:05:49.574Z,74.19
2022-11-07T22:10:51.434Z,71.91
2022-11-07T22:16:02.093Z,71.89
2022-11-07T22:21:05.822Z,72.54
2022-11-07T22:26:09.884Z,72.84
2022-11-07T22:31:23.450Z,73.45
2022-11-07T22:36:25.691Z,73.65
2022-11-07T22:41:29.333Z,75.28
2022-11-07T22:46:31.350Z,75.72
2022-11-07T22:51:35.041Z,76.10
2022-11-07T22:56:37.430Z,75.96
2022-11-07T23:01:42.440Z,76.33
2022-11-07T23:06:44.712Z,76.63
2022-11-07T23:11:48.336Z,76.11
2022-11-07T23:16:53.299Z,75.55
2022-11-07T23:21:56.810Z,75.41
2022-11-07T23:26:59.363Z,75.46
2022-11-07T23:32:01.255Z,75.48
2022-11-07T23:37:03.387Z,75.41
2022-11-07T23:42:05.221Z,75.56
2022-11-07T23:47:27.535Z,75.28
2022-11-07T23:52:29.358Z,75.31
2022-11-07T23:57:56.003Z,75.69
